sensor_id;sensor_type;location;lat;lon;timestamp;P1;durP1;ratioP1;P2;durP2;ratioP2
18090;SDS011;9172;49.948;9.208;2022-10-31T00:01:19;10.57;;;2.60;;
18090;SDS011;9172;49.948;9.208;2022-10-31T00:03:49;7.90;;;2.10;;
18090;SDS011;9172;49.948;9.208;2022-10-31T00:06:19;3.70;;;1.90;;
18090;SDS011;9172;49.948;9.208;2022-10-31T00:08:51;9.47;;;2.63;;
18090;SDS011;9172;49.948;9.208;2022-10-31T00:11:19;8.23;;;2.73;;
18090;SDS011;9172;49.948;9.208;2022-10-31T00:13:49;4.03;;;1.90;;
18090;SDS011;9172;49.948;9.208;2022-10-31T00:16:19;3.43;;;2.00;;
18090;SDS011;9172;49.948;9.208;2022-10-31T00:18:48;6.37;;;2.13;;
18090;SDS011;9172;49.948;9.208;2022-10-31T00:21:18;9.23;;;2.13;;
18090;SDS011;9172;49.948;9.208;2022-10-31T00:23:47;5.40;;;2.00;;
18090;SDS011;9172;49.948;9.208;2022-10-31T00:26:16;7.87;;;2.07;;
18090;SDS011;9172;49.948;9.208;2022-10-31T00:28:44;7.23;;;2.10;;
18090;SDS011;9172;49.948;9.208;2022-10-31T00:31:14;6.07;;;2.43;;
18090;SDS011;9172;49.948;9.208;2022-10-31T00:33:43;8.80;;;2.40;;
18090;SDS011;9172;49.948;9.208;2022-10-31T00:36:13;4.97;;;2.37;;
18090;SDS011;9172;49.948;9.208;2022-10-31T00:38:43;6.37;;;2.30;;
18090;SDS011;9172;49.948;9.208;2022-10-31T00:41:13;4.53;;;2.00;;
18090;SDS011;9172;49.948;9.208;2022-10-31T00:43:43;4.30;;;1.73;;
18090;SDS011;9172;49.948;9.208;2022-10-31T00:46:12;6.90;;;2.23;;
18090;SDS011;9172;49.948;9.208;2022-10-31T00:48:41;4.47;;;2.03;;
18090;SDS011;9172;49.948;9.208;2022-10-31T00:51:10;7.43;;;2.17;;
18090;SDS011;9172;49.948;9.208;2022-10-31T00:53:38;8.87;;;2.03;;
18090;SDS011;9172;49.948;9.208;2022-10-31T00:56:07;4.40;;;2.60;;
18090;SDS011;9172;49.948;9.208;2022-10-31T00:58:36;7.03;;;2.20;;
18090;SDS011;9172;49.948;9.208;2022-10-31T01:01:06;8.13;;;2.03;;
18090;SDS011;9172;49.948;9.208;2022-10-31T01:03:36;7.27;;;2.40;;
18090;SDS011;9172;49.948;9.208;2022-10-31T01:06:07;5.93;;;2.63;;
18090;SDS011;9172;49.948;9.208;2022-10-31T01:08:38;6.03;;;2.00;;
18090;SDS011;9172;49.948;9.208;2022-10-31T01:11:08;6.70;;;2.07;;
18090;SDS011;9172;49.948;9.208;2022-10-31T01:13:38;7.53;;;2.40;;
18090;SDS011;9172;49.948;9.208;2022-10-31T01:16:08;4.20;;;1.67;;
18090;SDS011;9172;49.948;9.208;2022-10-31T01:18:37;5.37;;;2.13;;
18090;SDS011;9172;49.948;9.208;2022-10-31T01:21:07;7.97;;;2.30;;
18090;SDS011;9172;49.948;9.208;2022-10-31T01:23:37;8.93;;;2.23;;
18090;SDS011;9172;49.948;9.208;2022-10-31T01:26:07;4.80;;;2.23;;
18090;SDS011;9172;49.948;9.208;2022-10-31T01:28:38;7.63;;;2.53;;
18090;SDS011;9172;49.948;9.208;2022-10-31T01:31:08;9.00;;;2.10;;
18090;SDS011;9172;49.948;9.208;2022-10-31T01:33:37;9.63;;;2.90;;
18090;SDS011;9172;49.948;9.208;2022-10-31T01:36:13;11.83;;;2.37;;
18090;SDS011;9172;49.948;9.208;2022-10-31T01:38:44;5.53;;;2.10;;
18090;SDS011;9172;49.948;9.208;2022-10-31T01:41:15;3.13;;;2.00;;
18090;SDS011;9172;49.948;9.208;2022-10-31T01:43:46;8.87;;;2.43;;
18090;SDS011;9172;49.948;9.208;2022-10-31T01:46:17;5.60;;;2.13;;
18090;SDS011;9172;49.948;9.208;2022-10-31T01:48:50;5.87;;;2.43;;
18090;SDS011;9172;49.948;9.208;2022-10-31T01:51:20;11.07;;;2.43;;
18090;SDS011;9172;49.948;9.208;2022-10-31T01:53:52;5.37;;;2.10;;
18090;SDS011;9172;49.948;9.208;2022-10-31T01:56:24;9.33;;;2.00;;
18090;SDS011;9172;49.948;9.208;2022-10-31T01:58:54;10.43;;;2.20;;
18090;SDS011;9172;49.948;9.208;2022-10-31T02:01:24;4.10;;;2.10;;
18090;SDS011;9172;49.948;9.208;2022-10-31T02:03:54;8.13;;;2.50;;
18090;SDS011;9172;49.948;9.208;2022-10-31T02:06:26;4.60;;;2.33;;
18090;SDS011;9172;49.948;9.208;2022-10-31T02:08:57;13.20;;;3.00;;
18090;SDS011;9172;49.948;9.208;2022-10-31T02:11:27;11.30;;;2.37;;
18090;SDS011;9172;49.948;9.208;2022-10-31T02:13:58;12.03;;;2.83;;
18090;SDS011;9172;49.948;9.208;2022-10-31T02:16:30;6.27;;;2.40;;
18090;SDS011;9172;49.948;9.208;2022-10-31T02:18:59;9.43;;;2.43;;
18090;SDS011;9172;49.948;9.208;2022-10-31T02:21:30;6.57;;;2.07;;
18090;SDS011;9172;49.948;9.208;2022-10-31T02:24:08;5.53;;;2.20;;
18090;SDS011;9172;49.948;9.208;2022-10-31T02:27:08;9.23;;;2.30;;
18090;SDS011;9172;49.948;9.208;2022-10-31T02:29:48;9.77;;;2.57;;
18090;SDS011;9172;49.948;9.208;2022-10-31T02:32:25;10.03;;;2.60;;
18090;SDS011;9172;49.948;9.208;2022-10-31T02:34:58;8.13;;;2.47;;
18090;SDS011;9172;49.948;9.208;2022-10-31T02:37:31;5.37;;;2.57;;
18090;SDS011;9172;49.948;9.208;2022-10-31T02:40:04;9.43;;;2.73;;
18090;SDS011;9172;49.948;9.208;2022-10-31T02:42:39;6.63;;;2.73;;
18090;SDS011;9172;49.948;9.208;2022-10-31T02:45:11;6.93;;;3.20;;
18090;SDS011;9172;49.948;9.208;2022-10-31T02:47:42;3.80;;;1.90;;
18090;SDS011;9172;49.948;9.208;2022-10-31T02:50:14;5.53;;;2.13;;
18090;SDS011;9172;49.948;9.208;2022-10-31T02:52:44;6.87;;;2.60;;
18090;SDS011;9172;49.948;9.208;2022-10-31T02:58:21;7.27;;;2.23;;
18090;SDS011;9172;49.948;9.208;2022-10-31T03:01:00;9.37;;;2.37;;
18090;SDS011;9172;49.948;9.208;2022-10-31T03:03:34;8.83;;;2.50;;
18090;SDS011;9172;49.948;9.208;2022-10-31T03:06:06;4.17;;;2.10;;
18090;SDS011;9172;49.948;9.208;2022-10-31T03:08:39;11.53;;;2.80;;
18090;SDS011;9172;49.948;9.208;2022-10-31T03:11:09;8.90;;;2.60;;
18090;SDS011;9172;49.948;9.208;2022-10-31T03:13:39;3.00;;;2.00;;
18090;SDS011;9172;49.948;9.208;2022-10-31T03:16:11;6.10;;;2.10;;
18090;SDS011;9172;49.948;9.208;2022-10-31T03:18:43;7.93;;;2.20;;
18090;SDS011;9172;49.948;9.208;2022-10-31T03:21:14;7.50;;;2.63;;
18090;SDS011;9172;49.948;9.208;2022-10-31T03:23:46;8.30;;;2.47;;
18090;SDS011;9172;49.948;9.208;2022-10-31T03:26:17;4.77;;;2.23;;
18090;SDS011;9172;49.948;9.208;2022-10-31T03:28:48;5.50;;;2.20;;
18090;SDS011;9172;49.948;9.208;2022-10-31T03:31:19;5.63;;;2.57;;
18090;SDS011;9172;49.948;9.208;2022-10-31T03:33:50;7.03;;;2.63;;
18090;SDS011;9172;49.948;9.208;2022-10-31T03:36:21;9.87;;;2.07;;
18090;SDS011;9172;49.948;9.208;2022-10-31T03:38:50;10.30;;;2.63;;
18090;SDS011;9172;49.948;9.208;2022-10-31T03:41:21;3.97;;;2.13;;
18090;SDS011;9172;49.948;9.208;2022-10-31T03:43:54;8.93;;;2.70;;
18090;SDS011;9172;49.948;9.208;2022-10-31T03:46:25;6.33;;;2.50;;
18090;SDS011;9172;49.948;9.208;2022-10-31T03:48:54;5.27;;;2.07;;
18090;SDS011;9172;49.948;9.208;2022-10-31T03:51:24;9.63;;;2.50;;
18090;SDS011;9172;49.948;9.208;2022-10-31T03:53:56;7.90;;;2.60;;
18090;SDS011;9172;49.948;9.208;2022-10-31T03:56:29;7.37;;;2.90;;
18090;SDS011;9172;49.948;9.208;2022-10-31T03:59:01;6.40;;;2.70;;
18090;SDS011;9172;49.948;9.208;2022-10-31T04:01:33;9.67;;;2.87;;
18090;SDS011;9172;49.948;9.208;2022-10-31T04:04:04;11.87;;;3.50;;
18090;SDS011;9172;49.948;9.208;2022-10-31T04:06:33;8.13;;;2.90;;
18090;SDS011;9172;49.948;9.208;2022-10-31T04:09:05;9.63;;;3.27;;
18090;SDS011;9172;49.948;9.208;2022-10-31T04:11:38;10.37;;;2.97;;
18090;SDS011;9172;49.948;9.208;2022-10-31T04:14:09;5.73;;;2.70;;
18090;SDS011;9172;49.948;9.208;2022-10-31T04:16:38;5.90;;;3.10;;
18090;SDS011;9172;49.948;9.208;2022-10-31T04:19:09;8.63;;;3.00;;
18090;SDS011;9172;49.948;9.208;2022-10-31T04:21:40;6.97;;;3.00;;
18090;SDS011;9172;49.948;9.208;2022-10-31T04:24:09;7.30;;;2.80;;
18090;SDS011;9172;49.948;9.208;2022-10-31T04:26:38;6.23;;;2.90;;
18090;SDS011;9172;49.948;9.208;2022-10-31T04:29:08;11.60;;;3.83;;
18090;SDS011;9172;49.948;9.208;2022-10-31T04:31:36;10.53;;;3.23;;
18090;SDS011;9172;49.948;9.208;2022-10-31T04:34:05;9.00;;;3.50;;
18090;SDS011;9172;49.948;9.208;2022-10-31T04:36:34;4.37;;;2.87;;
18090;SDS011;9172;49.948;9.208;2022-10-31T04:39:03;7.57;;;3.53;;
18090;SDS011;9172;49.948;9.208;2022-10-31T04:41:31;9.20;;;4.43;;
18090;SDS011;9172;49.948;9.208;2022-10-31T04:44:00;9.37;;;3.90;;
18090;SDS011;9172;49.948;9.208;2022-10-31T04:46:28;10.43;;;3.77;;
18090;SDS011;9172;49.948;9.208;2022-10-31T04:48:58;10.53;;;3.50;;
18090;SDS011;9172;49.948;9.208;2022-10-31T04:51:27;10.13;;;3.50;;
18090;SDS011;9172;49.948;9.208;2022-10-31T04:53:55;9.67;;;3.03;;
18090;SDS011;9172;49.948;9.208;2022-10-31T04:56:24;10.80;;;3.30;;
18090;SDS011;9172;49.948;9.208;2022-10-31T04:58:52;5.90;;;3.50;;
18090;SDS011;9172;49.948;9.208;2022-10-31T05:01:22;8.57;;;3.27;;
18090;SDS011;9172;49.948;9.208;2022-10-31T05:03:50;9.97;;;3.83;;
18090;SDS011;9172;49.948;9.208;2022-10-31T05:06:19;14.30;;;4.10;;
18090;SDS011;9172;49.948;9.208;2022-10-31T05:08:47;13.50;;;4.30;;
18090;SDS011;9172;49.948;9.208;2022-10-31T05:11:16;7.97;;;3.33;;
18090;SDS011;9172;49.948;9.208;2022-10-31T05:13:44;6.67;;;3.70;;
18090;SDS011;9172;49.948;9.208;2022-10-31T05:16:13;8.87;;;4.20;;
18090;SDS011;9172;49.948;9.208;2022-10-31T05:18:42;7.07;;;3.67;;
18090;SDS011;9172;49.948;9.208;2022-10-31T05:21:11;11.00;;;4.17;;
18090;SDS011;9172;49.948;9.208;2022-10-31T05:23:40;6.57;;;3.53;;
18090;SDS011;9172;49.948;9.208;2022-10-31T05:26:08;16.47;;;5.40;;
18090;SDS011;9172;49.948;9.208;2022-10-31T05:28:37;14.40;;;5.00;;
18090;SDS011;9172;49.948;9.208;2022-10-31T05:31:06;13.10;;;5.40;;
18090;SDS011;9172;49.948;9.208;2022-10-31T05:33:35;8.87;;;4.70;;
18090;SDS011;9172;49.948;9.208;2022-10-31T05:36:04;11.53;;;3.83;;
18090;SDS011;9172;49.948;9.208;2022-10-31T05:38:33;12.07;;;4.10;;
18090;SDS011;9172;49.948;9.208;2022-10-31T05:41:02;10.40;;;4.00;;
18090;SDS011;9172;49.948;9.208;2022-10-31T05:43:32;8.10;;;4.17;;
18090;SDS011;9172;49.948;9.208;2022-10-31T05:46:00;10.77;;;4.40;;
18090;SDS011;9172;49.948;9.208;2022-10-31T05:48:30;11.90;;;3.73;;
18090;SDS011;9172;49.948;9.208;2022-10-31T05:50:59;9.30;;;3.93;;
18090;SDS011;9172;49.948;9.208;2022-10-31T05:53:27;7.90;;;4.00;;
18090;SDS011;9172;49.948;9.208;2022-10-31T05:55:56;6.37;;;3.83;;
18090;SDS011;9172;49.948;9.208;2022-10-31T05:58:25;12.13;;;3.90;;
18090;SDS011;9172;49.948;9.208;2022-10-31T06:00:54;7.87;;;3.40;;
18090;SDS011;9172;49.948;9.208;2022-10-31T06:03:23;8.00;;;3.37;;
18090;SDS011;9172;49.948;9.208;2022-10-31T06:05:52;11.30;;;3.60;;
18090;SDS011;9172;49.948;9.208;2022-10-31T06:08:21;12.43;;;4.20;;
18090;SDS011;9172;49.948;9.208;2022-10-31T06:10:50;9.27;;;3.20;;
18090;SDS011;9172;49.948;9.208;2022-10-31T06:13:19;6.20;;;3.50;;
18090;SDS011;9172;49.948;9.208;2022-10-31T06:15:48;7.53;;;3.90;;
18090;SDS011;9172;49.948;9.208;2022-10-31T06:20:58;8.07;;;3.50;;
18090;SDS011;9172;49.948;9.208;2022-10-31T06:23:27;9.57;;;3.37;;
18090;SDS011;9172;49.948;9.208;2022-10-31T06:25:56;14.83;;;3.60;;
18090;SDS011;9172;49.948;9.208;2022-10-31T06:28:26;7.23;;;3.43;;
18090;SDS011;9172;49.948;9.208;2022-10-31T06:30:54;13.30;;;3.40;;
18090;SDS011;9172;49.948;9.208;2022-10-31T06:33:23;13.47;;;4.00;;
18090;SDS011;9172;49.948;9.208;2022-10-31T06:35:52;9.37;;;3.53;;
18090;SDS011;9172;49.948;9.208;2022-10-31T06:38:20;9.77;;;3.40;;
18090;SDS011;9172;49.948;9.208;2022-10-31T06:40:49;9.57;;;3.60;;
18090;SDS011;9172;49.948;9.208;2022-10-31T06:43:18;6.77;;;3.73;;
18090;SDS011;9172;49.948;9.208;2022-10-31T06:45:46;13.63;;;3.30;;
18090;SDS011;9172;49.948;9.208;2022-10-31T06:48:15;8.57;;;3.20;;
18090;SDS011;9172;49.948;9.208;2022-10-31T06:50:44;11.00;;;3.73;;
18090;SDS011;9172;49.948;9.208;2022-10-31T06:53:12;7.33;;;3.20;;
18090;SDS011;9172;49.948;9.208;2022-10-31T06:55:41;7.13;;;3.40;;
18090;SDS011;9172;49.948;9.208;2022-10-31T06:58:10;10.07;;;3.30;;
18090;SDS011;9172;49.948;9.208;2022-10-31T07:00:39;8.23;;;4.20;;
18090;SDS011;9172;49.948;9.208;2022-10-31T07:03:09;8.53;;;3.77;;
18090;SDS011;9172;49.948;9.208;2022-10-31T07:05:39;8.33;;;4.43;;
18090;SDS011;9172;49.948;9.208;2022-10-31T07:08:09;7.10;;;3.53;;
18090;SDS011;9172;49.948;9.208;2022-10-31T07:10:39;5.97;;;3.53;;
18090;SDS011;9172;49.948;9.208;2022-10-31T07:13:13;7.90;;;3.70;;
18090;SDS011;9172;49.948;9.208;2022-10-31T07:15:43;10.20;;;4.00;;
18090;SDS011;9172;49.948;9.208;2022-10-31T07:18:12;9.03;;;4.13;;
18090;SDS011;9172;49.948;9.208;2022-10-31T07:20:42;8.40;;;3.57;;
18090;SDS011;9172;49.948;9.208;2022-10-31T07:23:10;11.70;;;3.57;;
18090;SDS011;9172;49.948;9.208;2022-10-31T07:25:42;7.03;;;3.40;;
18090;SDS011;9172;49.948;9.208;2022-10-31T07:28:10;10.57;;;3.43;;
18090;SDS011;9172;49.948;9.208;2022-10-31T07:30:40;10.40;;;3.20;;
18090;SDS011;9172;49.948;9.208;2022-10-31T07:33:09;11.23;;;4.07;;
18090;SDS011;9172;49.948;9.208;2022-10-31T07:35:38;8.73;;;3.93;;
18090;SDS011;9172;49.948;9.208;2022-10-31T07:38:08;7.70;;;4.10;;
18090;SDS011;9172;49.948;9.208;2022-10-31T07:40:37;7.83;;;3.50;;
18090;SDS011;9172;49.948;9.208;2022-10-31T07:43:06;13.33;;;4.90;;
18090;SDS011;9172;49.948;9.208;2022-10-31T07:45:37;7.13;;;3.80;;
18090;SDS011;9172;49.948;9.208;2022-10-31T07:48:06;8.33;;;3.30;;
18090;SDS011;9172;49.948;9.208;2022-10-31T07:50:35;5.97;;;3.07;;
18090;SDS011;9172;49.948;9.208;2022-10-31T07:53:07;9.53;;;3.87;;
18090;SDS011;9172;49.948;9.208;2022-10-31T07:55:37;6.23;;;3.47;;
18090;SDS011;9172;49.948;9.208;2022-10-31T07:58:06;12.57;;;3.43;;
18090;SDS011;9172;49.948;9.208;2022-10-31T08:00:36;6.70;;;3.47;;
18090;SDS011;9172;49.948;9.208;2022-10-31T08:03:07;10.60;;;3.10;;
18090;SDS011;9172;49.948;9.208;2022-10-31T08:05:38;7.80;;;3.40;;
18090;SDS011;9172;49.948;9.208;2022-10-31T08:08:08;7.67;;;3.17;;
18090;SDS011;9172;49.948;9.208;2022-10-31T08:10:37;9.03;;;3.37;;
18090;SDS011;9172;49.948;9.208;2022-10-31T08:13:07;7.33;;;3.00;;
18090;SDS011;9172;49.948;9.208;2022-10-31T08:15:37;5.77;;;2.80;;
18090;SDS011;9172;49.948;9.208;2022-10-31T08:18:11;8.37;;;3.80;;
18090;SDS011;9172;49.948;9.208;2022-10-31T08:20:40;8.10;;;3.13;;
18090;SDS011;9172;49.948;9.208;2022-10-31T08:23:11;11.73;;;3.53;;
18090;SDS011;9172;49.948;9.208;2022-10-31T08:25:40;12.53;;;3.97;;
18090;SDS011;9172;49.948;9.208;2022-10-31T08:28:09;9.87;;;3.57;;
18090;SDS011;9172;49.948;9.208;2022-10-31T08:30:39;10.60;;;3.87;;
18090;SDS011;9172;49.948;9.208;2022-10-31T08:33:09;13.13;;;4.00;;
18090;SDS011;9172;49.948;9.208;2022-10-31T08:35:39;12.20;;;3.77;;
18090;SDS011;9172;49.948;9.208;2022-10-31T08:38:09;19.20;;;4.30;;
18090;SDS011;9172;49.948;9.208;2022-10-31T08:40:39;10.33;;;4.03;;
18090;SDS011;9172;49.948;9.208;2022-10-31T08:45:47;15.77;;;3.97;;
18090;SDS011;9172;49.948;9.208;2022-10-31T08:48:16;8.47;;;3.50;;
18090;SDS011;9172;49.948;9.208;2022-10-31T08:50:46;7.80;;;3.60;;
18090;SDS011;9172;49.948;9.208;2022-10-31T08:53:15;14.67;;;4.00;;
18090;SDS011;9172;49.948;9.208;2022-10-31T08:55:46;17.03;;;3.93;;
18090;SDS011;9172;49.948;9.208;2022-10-31T08:58:16;9.43;;;3.17;;
18090;SDS011;9172;49.948;9.208;2022-10-31T09:00:46;9.00;;;3.83;;
18090;SDS011;9172;49.948;9.208;2022-10-31T09:03:17;10.70;;;3.70;;
18090;SDS011;9172;49.948;9.208;2022-10-31T09:05:46;10.73;;;3.70;;
18090;SDS011;9172;49.948;9.208;2022-10-31T09:08:15;8.30;;;3.43;;
18090;SDS011;9172;49.948;9.208;2022-10-31T09:10:45;13.47;;;4.10;;
18090;SDS011;9172;49.948;9.208;2022-10-31T09:13:15;13.77;;;4.77;;
18090;SDS011;9172;49.948;9.208;2022-10-31T09:15:45;11.07;;;4.37;;
18090;SDS011;9172;49.948;9.208;2022-10-31T09:18:16;11.87;;;3.87;;
18090;SDS011;9172;49.948;9.208;2022-10-31T09:20:46;14.27;;;3.80;;
18090;SDS011;9172;49.948;9.208;2022-10-31T09:23:16;9.10;;;3.40;;
18090;SDS011;9172;49.948;9.208;2022-10-31T09:25:46;9.57;;;3.10;;
18090;SDS011;9172;49.948;9.208;2022-10-31T09:28:17;6.13;;;3.13;;
18090;SDS011;9172;49.948;9.208;2022-10-31T09:30:48;4.80;;;2.50;;
18090;SDS011;9172;49.948;9.208;2022-10-31T09:33:18;7.27;;;2.87;;
18090;SDS011;9172;49.948;9.208;2022-10-31T09:35:47;10.17;;;2.97;;
18090;SDS011;9172;49.948;9.208;2022-10-31T09:40:54;5.47;;;2.67;;
18090;SDS011;9172;49.948;9.208;2022-10-31T09:43:25;6.10;;;2.90;;
18090;SDS011;9172;49.948;9.208;2022-10-31T09:46:04;8.97;;;2.63;;
18090;SDS011;9172;49.948;9.208;2022-10-31T09:48:46;5.73;;;2.17;;
18090;SDS011;9172;49.948;9.208;2022-10-31T09:54:09;5.67;;;2.90;;
18090;SDS011;9172;49.948;9.208;2022-10-31T09:56:39;7.03;;;2.87;;
18090;SDS011;9172;49.948;9.208;2022-10-31T09:59:19;10.00;;;2.93;;
18090;SDS011;9172;49.948;9.208;2022-10-31T10:01:50;7.30;;;3.37;;
18090;SDS011;9172;49.948;9.208;2022-10-31T10:04:36;11.07;;;3.07;;
18090;SDS011;9172;49.948;9.208;2022-10-31T10:07:10;9.37;;;3.17;;
18090;SDS011;9172;49.948;9.208;2022-10-31T10:09:41;9.07;;;3.13;;
18090;SDS011;9172;49.948;9.208;2022-10-31T10:14:53;6.07;;;2.70;;
18090;SDS011;9172;49.948;9.208;2022-10-31T10:17:29;8.00;;;2.87;;
18090;SDS011;9172;49.948;9.208;2022-10-31T10:23:02;11.10;;;2.97;;
18090;SDS011;9172;49.948;9.208;2022-10-31T10:25:37;8.70;;;2.70;;
18090;SDS011;9172;49.948;9.208;2022-10-31T10:28:11;9.10;;;2.87;;
18090;SDS011;9172;49.948;9.208;2022-10-31T10:30:44;9.27;;;3.13;;
18090;SDS011;9172;49.948;9.208;2022-10-31T10:33:15;8.80;;;3.40;;
18090;SDS011;9172;49.948;9.208;2022-10-31T10:35:57;5.57;;;3.00;;
18090;SDS011;9172;49.948;9.208;2022-10-31T10:38:29;10.97;;;2.97;;
18090;SDS011;9172;49.948;9.208;2022-10-31T10:41:01;6.60;;;3.03;;
18090;SDS011;9172;49.948;9.208;2022-10-31T10:43:33;4.40;;;2.40;;
18090;SDS011;9172;49.948;9.208;2022-10-31T10:46:12;8.47;;;3.40;;
18090;SDS011;9172;49.948;9.208;2022-10-31T10:49:04;7.43;;;2.77;;
18090;SDS011;9172;49.948;9.208;2022-10-31T10:51:41;7.13;;;3.17;;
18090;SDS011;9172;49.948;9.208;2022-10-31T10:54:16;11.07;;;2.80;;
18090;SDS011;9172;49.948;9.208;2022-10-31T10:57:04;9.73;;;2.90;;
18090;SDS011;9172;49.948;9.208;2022-10-31T10:59:37;6.17;;;2.90;;
18090;SDS011;9172;49.948;9.208;2022-10-31T11:02:13;5.23;;;2.80;;
18090;SDS011;9172;49.948;9.208;2022-10-31T11:04:43;7.10;;;2.73;;
18090;SDS011;9172;49.948;9.208;2022-10-31T11:07:14;7.37;;;2.57;;
18090;SDS011;9172;49.948;9.208;2022-10-31T11:09:43;9.50;;;3.13;;
18090;SDS011;9172;49.948;9.208;2022-10-31T11:12:17;7.93;;;3.40;;
18090;SDS011;9172;49.948;9.208;2022-10-31T11:14:50;8.63;;;2.60;;
18090;SDS011;9172;49.948;9.208;2022-10-31T11:17:25;5.07;;;2.37;;
18090;SDS011;9172;49.948;9.208;2022-10-31T11:20:02;10.03;;;3.00;;
18090;SDS011;9172;49.948;9.208;2022-10-31T11:22:34;6.33;;;2.43;;
18090;SDS011;9172;49.948;9.208;2022-10-31T11:25:14;7.17;;;2.63;;
18090;SDS011;9172;49.948;9.208;2022-10-31T11:27:58;5.10;;;2.83;;
18090;SDS011;9172;49.948;9.208;2022-10-31T11:30:28;8.77;;;2.83;;
18090;SDS011;9172;49.948;9.208;2022-10-31T11:32:58;10.20;;;2.60;;
18090;SDS011;9172;49.948;9.208;2022-10-31T11:35:27;10.27;;;3.30;;
18090;SDS011;9172;49.948;9.208;2022-10-31T11:37:58;8.67;;;3.00;;
18090;SDS011;9172;49.948;9.208;2022-10-31T11:40:28;11.00;;;3.37;;
18090;SDS011;9172;49.948;9.208;2022-10-31T11:42:57;7.33;;;3.77;;
18090;SDS011;9172;49.948;9.208;2022-10-31T11:45:29;7.50;;;2.63;;
18090;SDS011;9172;49.948;9.208;2022-10-31T11:47:59;6.67;;;2.73;;
18090;SDS011;9172;49.948;9.208;2022-10-31T11:50:34;12.60;;;3.27;;
18090;SDS011;9172;49.948;9.208;2022-10-31T11:53:10;5.80;;;2.30;;
18090;SDS011;9172;49.948;9.208;2022-10-31T11:55:43;9.17;;;2.50;;
18090;SDS011;9172;49.948;9.208;2022-10-31T11:58:20;6.33;;;2.60;;
18090;SDS011;9172;49.948;9.208;2022-10-31T12:00:50;9.10;;;2.63;;
18090;SDS011;9172;49.948;9.208;2022-10-31T12:03:33;15.67;;;3.30;;
18090;SDS011;9172;49.948;9.208;2022-10-31T12:06:17;7.37;;;2.67;;
18090;SDS011;9172;49.948;9.208;2022-10-31T12:08:46;8.07;;;2.60;;
18090;SDS011;9172;49.948;9.208;2022-10-31T12:11:23;6.87;;;2.67;;
18090;SDS011;9172;49.948;9.208;2022-10-31T12:14:05;4.53;;;2.80;;
18090;SDS011;9172;49.948;9.208;2022-10-31T12:16:39;9.13;;;2.97;;
18090;SDS011;9172;49.948;9.208;2022-10-31T12:19:11;10.23;;;2.70;;
18090;SDS011;9172;49.948;9.208;2022-10-31T12:21:49;6.00;;;2.80;;
18090;SDS011;9172;49.948;9.208;2022-10-31T12:24:26;9.77;;;2.63;;
18090;SDS011;9172;49.948;9.208;2022-10-31T12:29:44;8.37;;;2.70;;
18090;SDS011;9172;49.948;9.208;2022-10-31T12:32:26;9.03;;;2.87;;
18090;SDS011;9172;49.948;9.208;2022-10-31T12:35:13;8.10;;;3.17;;
18090;SDS011;9172;49.948;9.208;2022-10-31T12:37:52;7.47;;;2.40;;
18090;SDS011;9172;49.948;9.208;2022-10-31T12:43:16;21.60;;;4.00;;
18090;SDS011;9172;49.948;9.208;2022-10-31T12:45:51;11.10;;;2.37;;
18090;SDS011;9172;49.948;9.208;2022-10-31T12:48:52;7.60;;;2.70;;
18090;SDS011;9172;49.948;9.208;2022-10-31T12:51:38;7.27;;;2.53;;
18090;SDS011;9172;49.948;9.208;2022-10-31T12:56:53;10.20;;;3.00;;
18090;SDS011;9172;49.948;9.208;2022-10-31T12:59:27;9.47;;;2.67;;
18090;SDS011;9172;49.948;9.208;2022-10-31T13:04:39;6.93;;;2.77;;
18090;SDS011;9172;49.948;9.208;2022-10-31T13:07:11;11.33;;;3.23;;
18090;SDS011;9172;49.948;9.208;2022-10-31T13:09:45;8.50;;;2.87;;
18090;SDS011;9172;49.948;9.208;2022-10-31T13:12:22;8.20;;;3.13;;
18090;SDS011;9172;49.948;9.208;2022-10-31T13:14:54;5.37;;;2.90;;
18090;SDS011;9172;49.948;9.208;2022-10-31T13:17:27;11.83;;;3.13;;
18090;SDS011;9172;49.948;9.208;2022-10-31T13:20:02;7.20;;;3.10;;
18090;SDS011;9172;49.948;9.208;2022-10-31T13:22:44;17.13;;;4.13;;
18090;SDS011;9172;49.948;9.208;2022-10-31T13:25:15;10.10;;;3.27;;
18090;SDS011;9172;49.948;9.208;2022-10-31T13:27:48;8.67;;;3.33;;
18090;SDS011;9172;49.948;9.208;2022-10-31T13:30:20;4.47;;;2.70;;
18090;SDS011;9172;49.948;9.208;2022-10-31T13:33:07;13.00;;;3.30;;
18090;SDS011;9172;49.948;9.208;2022-10-31T13:35:40;6.20;;;2.97;;
18090;SDS011;9172;49.948;9.208;2022-10-31T13:38:14;7.83;;;2.97;;
18090;SDS011;9172;49.948;9.208;2022-10-31T13:40:45;8.23;;;2.80;;
18090;SDS011;9172;49.948;9.208;2022-10-31T13:43:22;9.77;;;3.03;;
18090;SDS011;9172;49.948;9.208;2022-10-31T13:45:54;6.50;;;2.97;;
18090;SDS011;9172;49.948;9.208;2022-10-31T13:48:36;7.50;;;3.33;;
18090;SDS011;9172;49.948;9.208;2022-10-31T13:51:08;9.77;;;3.00;;
18090;SDS011;9172;49.948;9.208;2022-10-31T13:53:43;12.30;;;2.73;;
18090;SDS011;9172;49.948;9.208;2022-10-31T13:56:18;10.23;;;3.27;;
18090;SDS011;9172;49.948;9.208;2022-10-31T13:59:12;7.90;;;2.80;;
18090;SDS011;9172;49.948;9.208;2022-10-31T14:01:48;7.17;;;2.97;;
18090;SDS011;9172;49.948;9.208;2022-10-31T14:04:20;6.87;;;3.17;;
18090;SDS011;9172;49.948;9.208;2022-10-31T14:06:55;7.20;;;2.97;;
18090;SDS011;9172;49.948;9.208;2022-10-31T14:09:28;8.20;;;2.93;;
18090;SDS011;9172;49.948;9.208;2022-10-31T14:12:01;7.30;;;3.03;;
18090;SDS011;9172;49.948;9.208;2022-10-31T14:14:34;8.33;;;3.10;;
18090;SDS011;9172;49.948;9.208;2022-10-31T14:17:05;5.23;;;2.60;;
18090;SDS011;9172;49.948;9.208;2022-10-31T14:19:41;8.30;;;2.70;;
18090;SDS011;9172;49.948;9.208;2022-10-31T14:22:18;10.27;;;3.47;;
18090;SDS011;9172;49.948;9.208;2022-10-31T14:24:49;6.10;;;2.90;;
18090;SDS011;9172;49.948;9.208;2022-10-31T14:27:43;9.33;;;3.17;;
18090;SDS011;9172;49.948;9.208;2022-10-31T14:30:16;7.93;;;2.93;;
18090;SDS011;9172;49.948;9.208;2022-10-31T14:32:50;8.13;;;3.17;;
18090;SDS011;9172;49.948;9.208;2022-10-31T14:35:21;8.33;;;2.93;;
18090;SDS011;9172;49.948;9.208;2022-10-31T14:37:58;16.90;;;3.77;;
18090;SDS011;9172;49.948;9.208;2022-10-31T14:40:46;4.83;;;2.87;;
18090;SDS011;9172;49.948;9.208;2022-10-31T14:43:25;9.57;;;3.13;;
18090;SDS011;9172;49.948;9.208;2022-10-31T14:46:01;8.87;;;3.07;;
18090;SDS011;9172;49.948;9.208;2022-10-31T14:48:36;14.53;;;4.53;;
18090;SDS011;9172;49.948;9.208;2022-10-31T14:51:13;6.87;;;3.17;;
18090;SDS011;9172;49.948;9.208;2022-10-31T14:53:45;12.53;;;3.90;;
18090;SDS011;9172;49.948;9.208;2022-10-31T14:56:19;9.00;;;3.97;;
18090;SDS011;9172;49.948;9.208;2022-10-31T14:58:49;9.63;;;3.70;;
18090;SDS011;9172;49.948;9.208;2022-10-31T15:01:22;10.40;;;3.67;;
18090;SDS011;9172;49.948;9.208;2022-10-31T15:03:53;15.87;;;3.83;;
18090;SDS011;9172;49.948;9.208;2022-10-31T15:06:26;12.07;;;3.57;;
18090;SDS011;9172;49.948;9.208;2022-10-31T15:08:58;10.57;;;3.87;;
18090;SDS011;9172;49.948;9.208;2022-10-31T15:11:27;10.80;;;3.53;;
18090;SDS011;9172;49.948;9.208;2022-10-31T15:13:58;7.27;;;3.77;;
18090;SDS011;9172;49.948;9.208;2022-10-31T15:16:28;8.40;;;3.40;;
18090;SDS011;9172;49.948;9.208;2022-10-31T15:19:02;12.53;;;4.67;;
18090;SDS011;9172;49.948;9.208;2022-10-31T15:21:31;8.50;;;3.70;;
18090;SDS011;9172;49.948;9.208;2022-10-31T15:24:01;9.30;;;3.10;;
18090;SDS011;9172;49.948;9.208;2022-10-31T15:26:32;10.77;;;3.90;;
18090;SDS011;9172;49.948;9.208;2022-10-31T15:29:04;6.83;;;3.60;;
18090;SDS011;9172;49.948;9.208;2022-10-31T15:31:34;8.13;;;3.43;;
18090;SDS011;9172;49.948;9.208;2022-10-31T15:34:03;13.70;;;3.40;;
18090;SDS011;9172;49.948;9.208;2022-10-31T15:36:36;7.07;;;3.40;;
18090;SDS011;9172;49.948;9.208;2022-10-31T15:39:08;6.87;;;3.50;;
18090;SDS011;9172;49.948;9.208;2022-10-31T15:41:39;11.57;;;3.77;;
18090;SDS011;9172;49.948;9.208;2022-10-31T15:44:11;7.40;;;3.57;;
18090;SDS011;9172;49.948;9.208;2022-10-31T15:46:42;7.80;;;3.37;;
18090;SDS011;9172;49.948;9.208;2022-10-31T15:49:13;8.37;;;3.23;;
18090;SDS011;9172;49.948;9.208;2022-10-31T15:51:46;7.73;;;3.70;;
18090;SDS011;9172;49.948;9.208;2022-10-31T15:54:15;7.47;;;3.23;;
18090;SDS011;9172;49.948;9.208;2022-10-31T15:56:44;8.80;;;3.50;;